createdAt,value
2019-05-15T00:01:20.248Z,100968.69
2019-05-15T00:03:52.332Z,100978.14
2019-05-15T00:06:23.687Z,100980.84
2019-05-15T00:08:55.106Z,100980.13
2019-05-15T00:11:28.620Z,100985.74
2019-05-15T00:13:59.698Z,100984.08
2019-05-15T00:16:31.097Z,100984.46
2019-05-15T00:19:02.518Z,100982.98
2019-05-15T00:21:34.914Z,100977.39
2019-05-15T00:24:12.807Z,100975.10
2019-05-15T00:26:39.425Z,100971.92
2019-05-15T00:29:15.794Z,100980.00
2019-05-15T00:31:44.068Z,100975.05
2019-05-15T00:34:15.521Z,100983.63
2019-05-15T00:36:48.947Z,100979.28
2019-05-15T00:39:19.907Z,100989.08
2019-05-15T00:41:54.585Z,100996.41
2019-05-15T00:44:24.395Z,100997.97
2019-05-15T00:46:58.087Z,100997.33
2019-05-15T00:49:30.111Z,100992.48
2019-05-15T00:52:01.544Z,100993.73
2019-05-15T00:54:32.939Z,100986.06
2019-05-15T00:57:04.391Z,100990.53
2019-05-15T00:59:35.791Z,100993.81
2019-05-15T01:02:08.688Z,100993.49
2019-05-15T01:04:40.241Z,100995.69
2019-05-15T01:07:11.689Z,100995.80
2019-05-15T01:09:43.049Z,100988.38
2019-05-15T01:12:14.432Z,100982.73
2019-05-15T01:14:45.894Z,100981.68
2019-05-15T01:17:18.462Z,100993.63
2019-05-15T01:19:49.970Z,100998.70
2019-05-15T01:22:21.329Z,100993.09
2019-05-15T01:24:52.728Z,100998.50
2019-05-15T01:27:24.015Z,100993.19
2019-05-15T01:29:55.451Z,100992.16
2019-05-15T01:32:28.418Z,101000.88
2019-05-15T01:34:59.991Z,101002.70
2019-05-15T01:37:31.441Z,101006.28
2019-05-15T01:40:02.839Z,100999.39
2019-05-15T01:42:34.248Z,101006.70
2019-05-15T01:45:05.809Z,101010.21
2019-05-15T01:47:39.006Z,101009.84
2019-05-15T01:50:10.691Z,101012.84
2019-05-15T01:52:42.027Z,101014.88
2019-05-15T01:55:13.528Z,101007.78
2019-05-15T01:57:45.032Z,101013.70
2019-05-15T02:00:18.684Z,101020.39
2019-05-15T02:02:49.595Z,101016.98
2019-05-15T02:05:21.583Z,101019.83
2019-05-15T02:07:53.028Z,101014.39
2019-05-15T02:10:24.389Z,101011.64
2019-05-15T02:12:55.798Z,101015.59
2019-05-15T02:15:28.764Z,101010.19
2019-05-15T02:18:00.211Z,101007.23
2019-05-15T02:20:31.583Z,101010.09
2019-05-15T02:23:03.867Z,101012.80
2019-05-15T02:25:35.298Z,101012.34
2019-05-15T02:28:09.098Z,101014.08
2019-05-15T02:30:40.945Z,101008.89
2019-05-15T02:33:12.727Z,101015.62
2019-05-15T02:35:44.176Z,101018.83
2019-05-15T02:38:15.759Z,101025.22
2019-05-15T02:40:49.386Z,101027.77
2019-05-15T02:43:20.286Z,101026.70
2019-05-15T02:45:51.859Z,101018.00
2019-05-15T02:48:23.204Z,101015.68
2019-05-15T02:50:54.588Z,101023.23
2019-05-15T02:53:25.933Z,101021.84
2019-05-15T02:56:00.145Z,101019.52
2019-05-15T02:58:30.519Z,101021.41
2019-05-15T03:01:01.911Z,101023.51
2019-05-15T03:03:33.355Z,101021.92
2019-05-15T03:06:05.548Z,101017.58
2019-05-15T03:08:39.550Z,101010.37
2019-05-15T03:11:10.155Z,101027.26
2019-05-15T03:13:41.535Z,101021.55
2019-05-15T03:16:13.014Z,101025.95
2019-05-15T03:18:44.441Z,101033.18
2019-05-15T03:21:18.797Z,101030.09
2019-05-15T03:23:51.019Z,101022.84
2019-05-15T03:26:24.690Z,101021.39
2019-05-15T03:28:58.832Z,101021.81
2019-05-15T03:31:48.734Z,101015.03
2019-05-15T03:34:03.614Z,101021.73
2019-05-15T03:36:35.461Z,101024.98
2019-05-15T03:39:09.704Z,101025.11
2019-05-15T03:41:40.332Z,101029.84
2019-05-15T03:44:11.688Z,101029.66
2019-05-15T03:46:43.110Z,101021.03
2019-05-15T03:49:14.658Z,101019.34
2019-05-15T03:51:46.325Z,101025.97
2019-05-15T03:54:19.049Z,101025.45
2019-05-15T03:56:50.675Z,101030.90
2019-05-15T03:59:22.124Z,101028.90
2019-05-15T04:01:53.485Z,101031.47
2019-05-15T04:04:24.882Z,101026.02
2019-05-15T04:06:59.211Z,101025.84
2019-05-15T04:09:29.654Z,101030.80
2019-05-15T04:12:02.100Z,101032.12
2019-05-15T04:14:33.466Z,101027.48
2019-05-15T04:17:04.907Z,101032.56
2019-05-15T04:19:39.025Z,101031.46
2019-05-15T04:22:09.608Z,101027.88
2019-05-15T04:24:41.345Z,101033.41
2019-05-15T04:27:14.565Z,101029.00
2019-05-15T04:29:49.063Z,101038.17
2019-05-15T04:32:20.021Z,101045.09
2019-05-15T04:34:51.709Z,101059.27
2019-05-15T04:37:23.153Z,101055.11
2019-05-15T04:39:54.575Z,101057.41
2019-05-15T04:42:26.047Z,101068.35
2019-05-15T04:44:59.637Z,101060.52
2019-05-15T04:47:30.715Z,101060.27
2019-05-15T04:50:02.149Z,101059.48
2019-05-15T04:52:34.133Z,101065.61
2019-05-15T04:55:10.188Z,101066.17
2019-05-15T04:57:41.652Z,101064.76
2019-05-15T05:00:19.714Z,101063.42
2019-05-15T05:02:49.977Z,101067.48
2019-05-15T05:05:21.368Z,101076.88
2019-05-15T05:07:52.862Z,101076.47
2019-05-15T05:10:25.497Z,101085.38
2019-05-15T05:12:59.130Z,101092.52
2019-05-15T05:15:30.069Z,101096.36
2019-05-15T05:18:01.579Z,101092.03
2019-05-15T05:20:33.074Z,101093.48
2019-05-15T05:23:04.583Z,101098.72
2019-05-15T05:25:38.668Z,101098.64
2019-05-15T05:28:09.168Z,101102.05
2019-05-15T05:30:40.669Z,101097.24
2019-05-15T05:33:12.125Z,101105.11
2019-05-15T05:35:43.495Z,101100.63
2019-05-15T05:38:14.947Z,101105.63
2019-05-15T05:40:46.332Z,101095.13
2019-05-15T05:43:18.363Z,101099.83
2019-05-15T05:45:51.150Z,101106.87
2019-05-15T05:48:22.701Z,101105.97
2019-05-15T05:50:54.134Z,101109.34
2019-05-15T05:53:25.635Z,101113.77
2019-05-15T05:55:58.078Z,101106.07
2019-05-15T05:58:29.884Z,101099.55
2019-05-15T06:01:01.512Z,101104.00
2019-05-15T06:03:33.114Z,101109.05
2019-05-15T06:06:04.538Z,101111.73
2019-05-15T06:08:35.952Z,101105.45
2019-05-15T06:11:09.817Z,101109.77
2019-05-15T06:13:40.449Z,101103.09
2019-05-15T06:16:11.890Z,101109.30
2019-05-15T06:18:44.837Z,101112.24
2019-05-15T06:21:18.250Z,101106.74
2019-05-15T06:23:55.506Z,101107.71
2019-05-15T06:26:22.693Z,101112.30
2019-05-15T06:28:54.426Z,101111.84
2019-05-15T06:31:27.963Z,101118.37
2019-05-15T06:34:00.034Z,101122.13
2019-05-15T06:36:31.456Z,101111.47
2019-05-15T06:39:04.734Z,101109.62
2019-05-15T06:41:36.108Z,101107.64
2019-05-15T06:44:08.002Z,101114.03
2019-05-15T06:46:39.551Z,101111.03
2019-05-15T06:49:11.091Z,101108.97
2019-05-15T06:51:42.613Z,101113.55
2019-05-15T06:54:14.279Z,101099.75
2019-05-15T06:56:49.304Z,101100.55
2019-05-15T06:59:20.462Z,101100.05
2019-05-15T07:01:52.986Z,101096.45
2019-05-15T07:04:24.401Z,101085.91
2019-05-15T07:06:58.189Z,101095.77
2019-05-15T07:09:29.066Z,101090.78
2019-05-15T07:12:00.426Z,101092.83
2019-05-15T07:14:31.882Z,101093.23
2019-05-15T07:17:03.158Z,101093.30
2019-05-15T07:19:34.617Z,101097.13
2019-05-15T07:22:05.979Z,101100.69
2019-05-15T07:24:38.371Z,101096.85
2019-05-15T07:27:11.361Z,101104.36
2019-05-15T07:29:42.995Z,101096.80
2019-05-15T07:32:14.307Z,101087.53
2019-05-15T07:34:45.695Z,101086.04
2019-05-15T07:37:19.054Z,101095.38
2019-05-15T07:39:50.072Z,101096.25
2019-05-15T07:42:21.541Z,101090.53
2019-05-15T07:44:53.016Z,101095.97
2019-05-15T07:47:24.394Z,101093.19
2019-05-15T07:49:55.764Z,101094.50
2019-05-15T07:52:28.827Z,101096.12
2019-05-15T07:55:00.228Z,101093.31
2019-05-15T07:57:31.662Z,101091.97
2019-05-15T08:00:03.136Z,101086.09
2019-05-15T08:02:34.743Z,101091.56
2019-05-15T08:05:08.649Z,101097.61
2019-05-15T08:07:40.196Z,101091.89
2019-05-15T08:10:12.318Z,101093.73
2019-05-15T08:12:43.792Z,101094.52
2019-05-15T08:15:18.122Z,101094.91
2019-05-15T08:18:03.978Z,101088.91
2019-05-15T08:20:22.443Z,101086.70
2019-05-15T08:22:53.832Z,101090.44
2019-05-15T08:25:32.376Z,101080.71
2019-05-15T08:27:59.139Z,101080.64
2019-05-15T08:30:30.843Z,101076.91
2019-05-15T08:33:02.221Z,101084.99
2019-05-15T08:35:33.669Z,101083.05
2019-05-15T08:38:05.034Z,101080.39
2019-05-15T08:40:40.765Z,101079.34
2019-05-15T08:43:11.579Z,101076.26
2019-05-15T08:45:44.670Z,101087.02
2019-05-15T08:48:18.255Z,101090.86
2019-05-15T08:50:49.266Z,101088.64
2019-05-15T08:53:21.311Z,101083.63
2019-05-15T08:55:52.754Z,101086.28
2019-05-15T08:58:24.127Z,101094.02
2019-05-15T09:00:55.557Z,101093.16
2019-05-15T09:03:29.363Z,101086.28
2019-05-15T09:06:00.938Z,101090.72
2019-05-15T09:08:32.481Z,101082.39
2019-05-15T09:11:03.911Z,101080.71
2019-05-15T09:13:35.414Z,101076.95
2019-05-15T09:16:08.262Z,101077.30
2019-05-15T09:18:39.866Z,101069.67
2019-05-15T09:21:11.295Z,101082.19
2019-05-15T09:23:42.732Z,101079.16
2019-05-15T09:26:14.121Z,101081.69
2019-05-15T09:28:45.619Z,101076.64
2019-05-15T09:31:19.314Z,101073.67
2019-05-15T09:33:50.227Z,101073.91
2019-05-15T09:36:21.798Z,101075.49
2019-05-15T09:38:53.109Z,101067.36
2019-05-15T09:41:24.512Z,101070.44
2019-05-15T09:43:57.875Z,101078.84
2019-05-15T09:46:29.283Z,101078.84
2019-05-15T09:49:00.691Z,101082.73
2019-05-15T09:51:32.380Z,101081.37
2019-05-15T09:54:03.825Z,101077.37
2019-05-15T09:56:35.205Z,101077.13
2019-05-15T09:59:08.881Z,101078.97
2019-05-15T10:01:39.871Z,101081.33
2019-05-15T10:04:11.360Z,101087.61
2019-05-15T10:06:42.844Z,101086.36
2019-05-15T10:09:14.355Z,101084.63
2019-05-15T10:11:45.836Z,101082.14
2019-05-15T10:14:19.511Z,101086.59
2019-05-15T10:16:51.704Z,101091.14
2019-05-15T10:19:23.082Z,101080.20
2019-05-15T10:21:54.560Z,101082.19
2019-05-15T10:24:27.971Z,101077.33
2019-05-15T10:26:59.099Z,101081.61
2019-05-15T10:29:30.578Z,101081.95
2019-05-15T10:32:02.444Z,101071.97
2019-05-15T10:34:33.892Z,101081.03
2019-05-15T10:37:05.345Z,101082.94
2019-05-15T10:39:38.436Z,101084.45
2019-05-15T10:42:10.292Z,101080.28
2019-05-15T10:44:41.629Z,101085.02
2019-05-15T10:47:13.011Z,101080.95
2019-05-15T10:49:44.401Z,101075.89
2019-05-15T10:52:17.861Z,101078.47
2019-05-15T10:54:49.071Z,101078.75
2019-05-15T10:57:20.590Z,101067.28
2019-05-15T10:59:51.964Z,101075.95
2019-05-15T11:02:23.347Z,101069.02
2019-05-15T11:04:54.920Z,101069.05
2019-05-15T11:07:28.457Z,101071.62
2019-05-15T11:09:59.600Z,101078.63
2019-05-15T11:12:31.097Z,101082.86
2019-05-15T11:15:02.719Z,101082.84
2019-05-15T11:17:34.192Z,101086.22
2019-05-15T11:20:08.271Z,101080.36
2019-05-15T11:22:42.917Z,101073.38
2019-05-15T11:25:12.506Z,101075.38
2019-05-15T11:27:43.940Z,101074.01
2019-05-15T11:30:15.939Z,101067.83
2019-05-15T11:32:49.175Z,101072.53
2019-05-15T11:35:20.639Z,101068.59
2019-05-15T11:37:56.604Z,101071.06
2019-05-15T11:40:25.133Z,101070.46
2019-05-15T11:42:56.602Z,101062.86
2019-05-15T11:45:29.097Z,101058.88
2019-05-15T11:48:01.091Z,101056.61
2019-05-15T11:50:32.632Z,101058.00
2019-05-15T11:53:04.072Z,101058.00
2019-05-15T11:55:35.462Z,101058.25
2019-05-15T11:58:09.318Z,101058.00
2019-05-15T12:00:40.226Z,101057.70
2019-05-15T12:03:11.582Z,101053.22
2019-05-15T12:05:43.077Z,101051.27
2019-05-15T12:08:14.481Z,101054.65
2019-05-15T12:10:45.923Z,101055.52
2019-05-15T12:13:18.982Z,101045.42
2019-05-15T12:15:50.560Z,101043.81
2019-05-15T12:18:22.169Z,101042.89
2019-05-15T12:20:53.534Z,101049.52
2019-05-15T12:23:25.401Z,101044.22
2019-05-15T12:25:59.718Z,101044.55
2019-05-15T12:28:30.044Z,101048.97
2019-05-15T12:31:01.413Z,101046.17
2019-05-15T12:33:32.808Z,101051.47
2019-05-15T12:36:04.831Z,101046.44
2019-05-15T12:38:39.517Z,101040.34
2019-05-15T13:01:35.614Z,101033.35
2019-05-15T13:04:08.276Z,101034.48
2019-05-15T13:06:47.688Z,101034.20
2019-05-15T13:09:13.077Z,101030.02
2019-05-15T13:11:44.504Z,101022.69
2019-05-15T13:14:15.911Z,101022.12
2019-05-15T13:16:48.041Z,101029.24
2019-05-15T13:19:19.950Z,101034.86
2019-05-15T13:21:51.657Z,101037.11
2019-05-15T13:24:23.179Z,101033.78
2019-05-15T13:26:54.485Z,101033.49
2019-05-15T13:29:28.998Z,101038.27
2019-05-15T13:32:00.257Z,101040.27
2019-05-15T13:34:31.805Z,101037.19
2019-05-15T13:37:03.233Z,101042.28
2019-05-15T13:39:34.726Z,101040.03
2019-05-15T13:42:06.238Z,101040.85
2019-05-15T13:44:38.695Z,101032.40
2019-05-15T13:47:10.312Z,101032.46
2019-05-15T13:49:41.710Z,101032.73
2019-05-15T13:52:13.125Z,101030.19
2019-05-15T13:54:48.233Z,101036.11
2019-05-15T13:57:19.009Z,101032.17
2019-05-15T13:59:50.406Z,101032.46
2019-05-15T14:02:21.828Z,101028.48
2019-05-15T14:04:54.402Z,101030.49
2019-05-15T14:07:25.941Z,101033.58
2019-05-15T14:09:59.835Z,101035.51
2019-05-15T14:12:30.529Z,101032.69
2019-05-15T14:15:02.082Z,101035.23
2019-05-15T14:17:33.547Z,101028.76
2019-05-15T14:20:08.727Z,101029.58
2019-05-15T14:22:39.256Z,101029.28
2019-05-15T14:25:10.641Z,101033.78
2019-05-15T14:27:42.378Z,101027.31
2019-05-15T14:30:13.981Z,101025.06
2019-05-15T14:32:48.259Z,101029.01
2019-05-15T14:35:18.647Z,101032.36
2019-05-15T14:38:02.578Z,101023.11
2019-05-15T14:40:23.161Z,101031.80
2019-05-15T14:42:59.158Z,101024.50
2019-05-15T14:45:29.231Z,101026.74
2019-05-15T14:48:00.711Z,101020.31
2019-05-15T14:50:33.845Z,101020.84
2019-05-15T14:53:06.274Z,101017.20
2019-05-15T14:55:43.153Z,101015.75
2019-05-15T14:58:12.414Z,101017.45
2019-05-15T15:00:43.885Z,101018.80
2019-05-15T15:03:18.414Z,101016.25
2019-05-15T15:05:50.030Z,101013.43
2019-05-15T15:08:24.909Z,101013.14
2019-05-15T15:10:54.524Z,101017.92
2019-05-15T15:13:28.830Z,101018.42
2019-05-15T15:15:59.989Z,101014.27
2019-05-15T15:18:31.361Z,101006.66
2019-05-15T15:21:02.885Z,101014.80
2019-05-15T15:23:34.286Z,101012.29
2019-05-15T15:26:05.660Z,101020.13
2019-05-15T15:28:37.179Z,101011.41
2019-05-15T15:31:08.598Z,101013.64
2019-05-15T15:33:40.020Z,101006.66
2019-05-15T15:36:11.561Z,101009.69
2019-05-15T15:38:44.097Z,101009.11
2019-05-15T15:41:18.152Z,101009.98
2019-05-15T15:43:52.232Z,101015.32
2019-05-15T15:46:22.638Z,101015.59
2019-05-15T15:48:54.006Z,101017.57
2019-05-15T15:51:25.610Z,101013.05
2019-05-15T15:53:56.987Z,101010.24
2019-05-15T15:56:29.091Z,101005.43
2019-05-15T15:59:01.718Z,101007.98
2019-05-15T16:01:33.221Z,101006.56
2019-05-15T16:04:04.708Z,101006.80
2019-05-15T16:06:38.564Z,101005.65
2019-05-15T16:09:18.943Z,101004.03
2019-05-15T16:11:50.442Z,101000.92
2019-05-15T16:14:21.791Z,101001.11
2019-05-15T16:16:53.241Z,100999.44
2019-05-15T16:19:24.591Z,101000.02
2019-05-15T16:21:59.445Z,101003.16
2019-05-15T16:24:31.700Z,101001.48
2019-05-15T16:27:03.203Z,101000.56
2019-05-15T16:29:34.594Z,101000.77
2019-05-15T16:32:08.749Z,101002.44
2019-05-15T16:34:40.249Z,100997.42
2019-05-15T16:37:11.655Z,101003.88
2019-05-15T16:39:44.240Z,101007.42
2019-05-15T16:42:18.041Z,101007.42
2019-05-15T16:44:50.470Z,101012.12
2019-05-15T16:47:27.834Z,101007.38
2019-05-15T16:49:58.497Z,101003.92
2019-05-15T16:52:31.149Z,101010.83
2019-05-15T16:55:03.348Z,101004.59
2019-05-15T16:57:38.631Z,101006.45
2019-05-15T17:00:11.418Z,101008.00
2019-05-15T17:02:42.841Z,101001.92
2019-05-15T17:05:15.336Z,101008.78
2019-05-15T17:07:48.832Z,100999.60
2019-05-15T17:10:20.080Z,101005.91
2019-05-15T17:12:51.590Z,101006.25
2019-05-15T17:15:23.006Z,101009.41
2019-05-15T17:17:54.483Z,101003.31
2019-05-15T17:20:28.258Z,101003.72
2019-05-15T17:22:59.224Z,101010.80
2019-05-15T17:25:30.593Z,101010.95
2019-05-15T17:28:02.101Z,101007.48
2019-05-15T17:30:33.792Z,100998.33
2019-05-15T17:33:05.421Z,101001.80
2019-05-15T17:35:38.102Z,101010.77
2019-05-15T17:38:11.131Z,101008.84
2019-05-15T17:40:43.632Z,101007.61
2019-05-15T17:43:17.635Z,101015.77
2019-05-15T17:45:48.776Z,101018.69
2019-05-15T17:48:20.380Z,101016.59
2019-05-15T17:50:52.780Z,101017.28
2019-05-15T17:53:24.458Z,101013.97
2019-05-15T17:55:58.446Z,101019.93
2019-05-15T17:58:30.243Z,101025.92
2019-05-15T18:01:03.228Z,101030.06
2019-05-15T18:03:39.320Z,101030.45
2019-05-15T18:06:10.878Z,101032.87
2019-05-15T18:08:43.016Z,101031.72
2019-05-15T18:11:14.434Z,101040.16
2019-05-15T18:13:45.863Z,101040.37
2019-05-15T18:16:18.261Z,101041.23
2019-05-15T18:18:49.909Z,101041.94
2019-05-15T18:21:21.798Z,101037.96
2019-05-15T18:23:53.264Z,101042.02
2019-05-15T18:26:24.720Z,101033.84
2019-05-15T18:28:58.335Z,101027.94
2019-05-15T18:31:30.529Z,101027.47
2019-05-15T18:34:02.039Z,101030.10
2019-05-15T18:36:35.405Z,101030.77
2019-05-15T18:39:10.148Z,101033.61
2019-05-15T18:41:41.619Z,101044.83
2019-05-15T18:44:13.171Z,101043.30
2019-05-15T18:46:44.732Z,101043.78
2019-05-15T18:49:17.981Z,101045.89
2019-05-15T18:51:49.386Z,101045.08
2019-05-15T18:54:20.888Z,101045.31
2019-05-15T18:56:52.431Z,101044.31
2019-05-15T18:59:24.101Z,101042.02
2019-05-15T19:01:55.581Z,101046.42
2019-05-15T19:04:28.820Z,101048.48
2019-05-15T19:07:00.414Z,101042.98
2019-05-15T19:09:31.956Z,101039.86
2019-05-15T19:12:03.525Z,101045.66
2019-05-15T19:14:39.409Z,101044.89
2019-05-15T19:17:09.465Z,101049.14
2019-05-15T19:19:40.966Z,101045.30
2019-05-15T19:22:12.627Z,101050.25
2019-05-15T19:24:44.157Z,101045.25
2019-05-15T19:27:18.494Z,101050.25
2019-05-15T19:29:50.402Z,101053.50
2019-05-15T19:32:22.082Z,101049.57
2019-05-15T19:34:56.246Z,101048.57
2019-05-15T19:37:29.362Z,101044.72
2019-05-15T19:40:01.321Z,101041.80
2019-05-15T19:42:34.066Z,101045.95
2019-05-15T19:45:08.518Z,101039.27
2019-05-15T19:47:40.240Z,101039.33
2019-05-15T19:50:13.419Z,101038.09
2019-05-15T19:52:59.891Z,101039.56
2019-05-15T19:55:34.511Z,101038.33
2019-05-15T19:58:05.938Z,101040.17
2019-05-15T20:00:38.737Z,101040.80
2019-05-15T20:03:10.734Z,101043.37
2019-05-15T20:05:43.845Z,101034.06
2019-05-15T20:08:15.374Z,101040.31
2019-05-15T20:10:47.908Z,101034.84
2019-05-15T20:13:21.157Z,101041.60
2019-05-15T20:15:52.992Z,101044.11
2019-05-15T20:18:27.707Z,101034.80
2019-05-15T20:20:58.973Z,101040.28
2019-05-15T20:23:31.665Z,101037.70
2019-05-15T20:26:03.270Z,101046.42
2019-05-15T20:28:34.747Z,101046.87
2019-05-15T20:31:07.923Z,101040.11
2019-05-15T20:33:39.461Z,101036.31
2019-05-15T20:36:11.346Z,101039.48
2019-05-15T20:38:43.716Z,101038.97
2019-05-15T20:41:15.164Z,101042.20
2019-05-15T20:43:48.961Z,101037.65
2019-05-15T20:46:19.999Z,101036.20
2019-05-15T20:48:51.420Z,101028.69
2019-05-15T20:51:22.921Z,101031.22
2019-05-15T20:53:54.330Z,101027.65
2019-05-15T20:56:28.149Z,101034.73
2019-05-15T20:59:01.802Z,101034.16
2019-05-15T21:01:33.755Z,101031.44
2019-05-15T21:04:18.518Z,101031.72
2019-05-15T21:06:38.845Z,101029.89
2019-05-15T21:09:10.503Z,101029.13
2019-05-15T21:11:42.182Z,101034.44
2019-05-15T21:14:13.611Z,101033.41
2019-05-15T21:16:45.139Z,101031.78
2019-05-15T21:19:18.800Z,101035.93
2019-05-15T21:21:49.843Z,101031.39
2019-05-15T21:24:21.275Z,101027.63
2019-05-15T21:26:52.827Z,101034.95
2019-05-15T21:29:24.199Z,101035.23
2019-05-15T21:31:58.000Z,101038.16
2019-05-15T21:34:36.976Z,101038.22
2019-05-15T21:37:05.460Z,101036.87
2019-05-15T21:39:39.171Z,101032.77
2019-05-15T21:42:10.043Z,101036.76
2019-05-15T21:44:41.362Z,101038.66
2019-05-15T21:47:12.794Z,101028.95
2019-05-15T21:49:44.328Z,101038.22
2019-05-15T21:52:18.546Z,101033.77
2019-05-15T21:54:50.506Z,101040.91
2019-05-15T21:57:32.790Z,101035.45
2019-05-15T21:59:55.158Z,101040.49
2019-05-15T22:02:29.208Z,101035.24
2019-05-15T22:04:59.805Z,101039.17
2019-05-15T22:07:31.203Z,101033.22
2019-05-15T22:10:02.562Z,101030.79
2019-05-15T22:12:34.306Z,101029.19
2019-05-15T22:15:09.039Z,101029.73
2019-05-15T22:17:40.830Z,101029.23
2019-05-15T22:20:13.008Z,101021.59
2019-05-15T22:22:44.614Z,101025.84
2019-05-15T22:25:18.782Z,101023.28
2019-05-15T22:27:49.626Z,101015.95
2019-05-15T22:30:23.777Z,101015.23
2019-05-15T22:32:55.237Z,101018.85
2019-05-15T22:35:29.096Z,101019.81
2019-05-15T22:37:59.744Z,101028.66
2019-05-15T22:40:31.187Z,101030.58
2019-05-15T22:43:02.566Z,101026.27
2019-05-15T22:45:34.023Z,101026.19
2019-05-15T22:48:05.615Z,101022.67
2019-05-15T22:50:38.413Z,101020.08
2019-05-15T22:53:09.963Z,101022.04
2019-05-15T22:55:41.428Z,101021.64
2019-05-15T22:58:13.029Z,101026.16
2019-05-15T23:00:48.690Z,101030.52
2019-05-15T23:03:19.152Z,101039.14
2019-05-15T23:05:50.736Z,101043.50
2019-05-15T23:08:22.240Z,101039.89
2019-05-15T23:10:54.071Z,101034.14
2019-05-15T23:13:25.496Z,101033.91
2019-05-15T23:15:58.412Z,101038.40
2019-05-15T23:18:30.228Z,101038.06
2019-05-15T23:21:02.592Z,101046.78
2019-05-15T23:23:34.050Z,101036.51
2019-05-15T23:26:05.425Z,101041.39
2019-05-15T23:28:38.648Z,101044.46
2019-05-15T23:31:10.065Z,101032.80
2019-05-15T23:33:41.537Z,101037.78
2019-05-15T23:36:12.998Z,101035.36
2019-05-15T23:38:44.540Z,101031.30
2019-05-15T23:41:15.968Z,101029.28
2019-05-15T23:43:48.236Z,101024.84
2019-05-15T23:46:19.862Z,101023.37
2019-05-15T23:48:52.922Z,101019.87
2019-05-15T23:51:24.211Z,101028.68
2019-05-15T23:53:55.720Z,101026.44
2019-05-15T23:56:29.109Z,101024.41
2019-05-15T23:59:00.446Z,101029.33
